LFRC/CER METAR and TAF weather

Enter ICAO airport designator
Station Type Date Time Source
LFRC METAR 2020/12/01 21:00 UTC NOAA

LFRC 012100Z AUTO 01006KT 9999 SCT024 BKN034 06/02 Q1025


Station Type Date Time Source
LFRC Decoded METAR 2020/12/01 21:00 UTC NOAA

Cherbourg / Maupertus, France (LFRC) 49-39N 001-28W 139M
Dec 01, 2020 - 04:00 PM EST / 2020.12.01 2100 UTC
Wind: from the N (010 degrees) at 7 MPH (6 KT):0
Visibility: greater than 7 mile(s):0
Sky conditions: mostly cloudy
Temperature: 42 F (6 C)
Dew Point: 35 F (2 C)
Relative Humidity: 75%
Pressure (altimeter): 30.27 in. Hg (1025 hPa)
ob: LFRC 012100Z AUTO 01006KT 9999 SCT024 BKN034 06/02 Q1025
cycle: 21

Station Type Date Time Source
LFRC TAF 2008/10/12 17:07 UTC NOAA

TAF
AMD LFRC 121707Z 121721 CNL

Example: see airport list